Time;durP1;ratioP1;P1;durP2;ratioP2;P2;SDS_P1;SDS_P2;PMS_P1;PMS_P2;Temp;Humidity;BMP_temperature;BMP_pressure;BME280_temperature;BME280_humidity;BME280_pressure;Samples;Min_cycle;Max_cycle;Signal;HPM_P1;HPM_P2
2022/04/25 00:02:05;;;;;;;24.70;9.63;;;;;;;15.76;62.17;100161.91;5035223;28;20469;-80
2022/04/25 00:04:31;;;;;;;24.40;8.50;;;;;;;15.76;62.70;100170.06;5053243;28;20031;-82
2022/04/25 00:06:56;;;;;;;14.32;8.82;;;;;;;15.74;62.82;100163.09;5055367;28;20029;-80
2022/04/25 00:09:22;;;;;;;15.63;8.10;;;;;;;15.73;62.38;100162.25;5041752;28;20482;-82
2022/04/25 00:11:47;;;;;;;19.15;8.48;;;;;;;15.71;62.44;100153.44;5039999;28;20056;-80
2022/04/25 00:14:14;;;;;;;13.18;7.57;;;;;;;15.70;61.85;100162.59;5055195;28;20099;-82
2022/04/25 00:16:40;;;;;;;18.25;8.27;;;;;;;15.68;62.05;100159.22;5055422;28;20108;-80
2022/04/25 00:19:06;;;;;;;19.05;7.95;;;;;;;15.70;62.18;100159.03;5055076;28;20215;-81
2022/04/25 00:21:32;;;;;;;11.25;7.13;;;;;;;15.75;61.81;100164.78;5053645;28;20021;-80
2022/04/25 00:23:57;;;;;;;19.17;7.55;;;;;;;15.76;61.92;100155.66;5055570;28;20096;-82
2022/04/25 00:26:23;;;;;;;14.80;8.07;;;;;;;15.77;61.89;100157.34;5055104;28;20486;-82
2022/04/25 00:28:48;;;;;;;16.60;7.82;;;;;;;15.73;61.75;100158.69;5054960;28;20083;-82
2022/04/25 00:31:14;;;;;;;30.05;7.70;;;;;;;15.72;61.92;100151.56;5054863;28;20033;-81
2022/04/25 00:33:39;;;;;;;17.02;8.10;;;;;;;15.74;61.86;100154.97;5054994;28;20025;-81
2022/04/25 00:36:05;;;;;;;15.88;6.65;;;;;;;15.71;62.07;100147.19;5054571;28;20107;-82
2022/04/25 00:38:30;;;;;;;23.40;7.40;;;;;;;15.72;62.51;100151.56;5055230;28;20124;-80
2022/04/25 00:40:56;;;;;;;21.83;8.43;;;;;;;15.73;62.66;100148.69;5054588;28;20070;-81
2022/04/25 00:43:21;;;;;;;13.73;6.90;;;;;;;15.76;62.52;100142.94;5054484;28;20375;-81
2022/04/25 00:45:46;;;;;;;28.17;8.57;;;;;;;15.70;62.77;100140.91;5054340;28;20025;-79
2022/04/25 00:48:12;;;;;;;18.70;8.68;;;;;;;15.67;63.22;100130.41;5054692;28;20467;-78
2022/04/25 00:50:40;;;;;;;25.85;9.32;;;;;;;15.62;63.18;100134.66;5054192;28;20471;-79
2022/04/25 00:53:06;;;;;;;23.27;8.93;;;;;;;15.65;63.52;100150.56;5054359;28;20066;-79
2022/04/25 00:55:32;;;;;;;28.30;9.25;;;;;;;15.59;63.51;100145.81;5054555;28;20036;-78
2022/04/25 00:57:58;;;;;;;15.55;8.30;;;;;;;15.56;63.09;100138.88;5055512;28;20025;-78
2022/04/25 01:00:24;;;;;;;26.17;8.43;;;;;;;15.47;63.58;100129.03;5054279;28;20029;-81
2022/04/25 01:02:50;;;;;;;24.95;8.18;;;;;;;15.43;63.73;100127.66;5053973;28;20158;-80
2022/04/25 01:05:16;;;;;;;21.77;9.70;;;;;;;15.35;63.87;100121.38;5054477;28;20116;-80
2022/04/25 01:07:41;;;;;;;17.15;9.00;;;;;;;15.35;64.51;100130.34;5054138;28;20025;-81
2022/04/25 01:10:09;;;;;;;15.80;9.30;;;;;;;15.36;64.20;100133.88;5053816;28;20094;-80
2022/04/25 01:12:35;;;;;;;20.67;8.77;;;;;;;15.40;63.98;100137.97;5054475;28;20053;-80
2022/04/25 01:15:05;;;;;;;20.75;8.18;;;;;;;15.35;63.95;100138.47;5055048;28;20024;-79
2022/04/25 01:17:31;;;;;;;15.52;9.05;;;;;;;15.23;64.03;100118.13;5059128;28;20035;-80
2022/04/25 01:19:56;;;;;;;18.92;8.68;;;;;;;15.17;64.23;100125.06;5069024;28;20033;-79
2022/04/25 01:22:30;;;;;;;19.38;8.70;;;;;;;15.18;64.10;100129.47;5064665;28;20035;-79
2022/04/25 01:27:40;;;;;;;15.55;8.15;;;;;;;15.12;64.34;100123.88;5055430;28;20031;-79
2022/04/25 01:30:08;;;;;;;28.45;9.52;;;;;;;15.09;64.66;100130.47;5053548;28;20029;-79
2022/04/25 01:32:33;;;;;;;15.00;7.65;;;;;;;15.07;64.53;100126.25;5053271;28;20404;-79
2022/04/25 01:34:59;;;;;;;18.23;10.00;;;;;;;15.04;64.66;100130.13;5052906;28;20063;-79
2022/04/25 01:37:24;;;;;;;19.70;9.02;;;;;;;15.00;64.91;100120.63;5053846;28;20041;-79
2022/04/25 01:39:52;;;;;;;30.85;10.13;;;;;;;14.94;65.19;100121.28;5053405;28;20036;-79
2022/04/25 01:42:19;;;;;;;21.88;9.00;;;;;;;14.93;65.47;100116.88;5052983;28;20025;-79
2022/04/25 01:44:44;;;;;;;19.80;9.05;;;;;;;14.90;65.23;100102.81;5053196;28;20025;-79
2022/04/25 01:47:11;;;;;;;20.70;9.75;;;;;;;14.88;65.34;100100.28;5051917;28;20028;-79
2022/04/25 01:49:37;;;;;;;27.13;9.55;;;;;;;14.85;65.71;100102.47;5053408;28;20104;-79
2022/04/25 01:52:15;;;;;;;20.45;9.15;;;;;;;14.77;65.66;100097.06;5053023;28;20031;-80
2022/04/25 01:54:40;;;;;;;14.55;8.25;;;;;;;14.60;66.24;100096.97;5053406;28;20074;-79
2022/04/25 01:57:06;;;;;;;27.20;11.10;;;;;;;14.64;66.32;100092.94;5052891;28;20033;-80
2022/04/25 01:59:31;;;;;;;26.40;8.70;;;;;;;14.60;66.23;100090.72;5052673;28;20036;-80
2022/04/25 02:02:00;;;;;;;16.10;7.82;;;;;;;14.47;66.61;100095.72;5052725;28;20025;-80
2022/04/25 02:04:25;;;;;;;18.13;8.82;;;;;;;14.40;67.17;100089.28;5052639;28;20025;-81
2022/04/25 02:06:50;;;;;;;15.00;8.80;;;;;;;14.47;67.21;100090.31;5052842;28;20021;-80
2022/04/25 02:09:17;;;;;;;19.90;8.70;;;;;;;14.49;67.27;100093.72;5052495;28;20094;-79
2022/04/25 02:11:42;;;;;;;17.85;10.20;;;;;;;14.49;67.25;100091.88;5052721;28;20051;-79
2022/04/25 02:14:08;;;;;;;20.92;9.73;;;;;;;14.36;67.37;100080.66;5052656;28;20025;-79
2022/04/25 02:16:34;;;;;;;15.93;9.27;;;;;;;14.35;67.68;100086.22;5053049;28;20025;-79
2022/04/25 02:18:59;;;;;;;15.80;10.30;;;;;;;14.36;68.03;100086.06;5052537;28;20452;-78
2022/04/25 02:21:24;;;;;;;22.42;9.90;;;;;;;14.38;68.03;100080.47;5052498;28;20048;-80
2022/04/25 02:23:50;;;;;;;18.40;10.77;;;;;;;14.41;67.80;100085.56;5052597;28;20036;-81
2022/04/25 02:26:16;;;;;;;19.70;11.05;;;;;;;14.46;67.64;100084.06;5053012;28;20025;-79
2022/04/25 02:28:42;;;;;;;29.08;10.23;;;;;;;14.49;67.68;100082.91;5052519;28;20060;-81
2022/04/25 02:31:07;;;;;;;18.08;9.32;;;;;;;14.53;67.35;100085.09;5052537;28;20052;-78
2022/04/25 02:33:34;;;;;;;32.00;11.02;;;;;;;14.52;67.55;100082.59;5052330;28;20032;-80
2022/04/25 02:36:01;;;;;;;18.30;9.35;;;;;;;14.51;67.34;100076.31;5052436;28;20499;-80
2022/04/25 02:38:26;;;;;;;22.63;10.50;;;;;;;14.54;67.23;100080.56;5052366;28;20041;-79
2022/04/25 02:41:04;;;;;;;28.30;10.10;;;;;;;14.51;67.57;100080.88;5052334;28;20031;-79
2022/04/25 02:43:37;;;;;;;16.48;8.48;;;;;;;14.54;67.29;100085.97;5051824;28;20111;-80
2022/04/25 02:46:05;;;;;;;17.17;9.25;;;;;;;14.48;67.61;100083.91;5051167;28;20502;-80
2022/04/25 02:48:32;;;;;;;15.60;9.77;;;;;;;14.50;67.62;100090.00;5052934;28;20060;-80
2022/04/25 02:50:58;;;;;;;22.05;8.88;;;;;;;14.48;67.45;100082.06;5052857;28;20462;-79
2022/04/25 02:53:24;;;;;;;16.15;10.52;;;;;;;14.41;67.76;100088.25;5054084;28;20029;-80
2022/04/25 02:55:53;;;;;;;24.73;9.48;;;;;;;14.42;67.82;100088.13;5064482;28;20025;-79
2022/04/25 02:58:20;;;;;;;23.80;9.95;;;;;;;14.47;67.81;100091.16;5057139;28;20055;-80
2022/04/25 03:00:46;;;;;;;18.40;10.45;;;;;;;14.44;67.81;100096.91;5052761;28;20195;-80
2022/04/25 03:03:13;;;;;;;29.20;10.98;;;;;;;14.48;67.67;100092.03;5052507;28;20036;-80
2022/04/25 03:05:44;;;;;;;20.42;10.35;;;;;;;14.46;67.70;100083.22;5052375;28;20035;-79
2022/04/25 03:08:23;;;;;;;26.60;9.65;;;;;;;14.45;67.58;100093.19;5052210;28;20114;-80
2022/04/25 03:10:51;;;;;;;32.22;12.07;;;;;;;14.41;67.56;100096.38;5051973;28;20134;-80
2022/04/25 03:13:17;;;;;;;29.13;9.13;;;;;;;14.37;67.77;100085.03;5051888;28;20032;-81
2022/04/25 03:15:44;;;;;;;30.45;10.15;;;;;;;14.36;67.98;100085.22;5051750;28;20024;-79
2022/04/25 03:18:11;;;;;;;34.25;10.93;;;;;;;14.28;67.67;100088.69;5051532;28;20115;-79
2022/04/25 03:20:38;;;;;;;20.23;9.50;;;;;;;14.27;67.80;100086.16;5052106;28;20078;-79
2022/04/25 03:23:05;;;;;;;31.00;10.10;;;;;;;14.17;68.14;100081.72;5051642;28;20078;-79
2022/04/25 03:25:31;;;;;;;28.95;10.55;;;;;;;14.17;68.21;100079.00;5051667;28;20036;-79
2022/04/25 03:27:57;;;;;;;22.38;11.13;;;;;;;14.13;68.25;100083.03;5052253;28;20029;-79
2022/04/25 03:30:22;;;;;;;33.15;13.85;;;;;;;14.10;68.43;100083.34;5051637;28;20056;-79
2022/04/25 03:32:48;;;;;;;36.08;11.80;;;;;;;14.12;68.43;100085.91;5051759;28;20102;-79
2022/04/25 03:35:15;;;;;;;19.45;9.35;;;;;;;14.12;68.56;100086.75;5051644;28;20045;-79
2022/04/25 03:37:41;;;;;;;30.40;10.70;;;;;;;14.10;68.35;100088.75;5051981;28;20044;-79
2022/04/25 03:40:09;;;;;;;40.42;10.85;;;;;;;14.11;68.48;100087.75;5051676;28;20029;-80
2022/04/25 03:42:36;;;;;;;24.10;9.90;;;;;;;14.14;68.40;100090.16;5052264;28;20475;-79
2022/04/25 03:45:04;;;;;;;32.13;11.52;;;;;;;14.15;68.36;100091.00;5051662;28;20028;-80
2022/04/25 03:47:29;;;;;;;44.42;12.85;;;;;;;14.15;68.54;100091.84;5051412;28;20099;-77
2022/04/25 03:49:55;;;;;;;38.70;10.07;;;;;;;14.10;68.40;100087.91;5051444;28;20530;-79
2022/04/25 03:52:20;;;;;;;28.27;11.23;;;;;;;14.07;68.43;100086.38;5051213;28;20553;-77
2022/04/25 03:57:30;;;;;;;28.98;10.50;;;;;;;14.12;68.67;100086.75;5055106;28;20098;-78
2022/04/25 03:59:56;;;;;;;35.15;10.60;;;;;;;14.13;68.67;100088.44;5054906;28;20032;-80
2022/04/25 04:02:21;;;;;;;52.03;14.50;;;;;;;14.15;68.45;100086.44;5054942;28;20020;-79
2022/04/25 04:04:48;;;;;;;44.67;11.63;;;;;;;14.18;68.69;100096.94;5055141;28;20044;-78
2022/04/25 04:07:13;;;;;;;28.63;11.55;;;;;;;14.23;68.52;100092.88;5054717;28;20455;-78
2022/04/25 04:09:45;;;;;;;48.92;15.35;;;;;;;14.27;68.48;100083.44;5054876;28;20031;-79
2022/04/25 04:12:11;;;;;;;22.67;11.43;;;;;;;14.30;68.03;100083.97;5054931;28;20028;-78
2022/04/25 04:14:37;;;;;;;22.77;8.00;;;;;;;14.34;67.71;100081.84;5054872;28;20298;-79
2022/04/25 04:17:07;;;;;;;24.33;10.32;;;;;;;14.41;67.67;100074.75;5054874;28;20495;-79
2022/04/25 04:19:38;;;;;;;27.73;10.02;;;;;;;14.41;67.77;100081.00;5054985;28;20025;-79
2022/04/25 04:22:04;;;;;;;18.15;8.80;;;;;;;14.48;67.95;100078.50;5054781;28;20039;-79
2022/04/25 04:24:31;;;;;;;28.38;10.73;;;;;;;14.48;68.38;100078.50;5045065;28;20108;-78
2022/04/25 04:27:04;;;;;;;31.63;10.98;;;;;;;14.60;68.33;100080.75;5054706;28;20056;-79
2022/04/25 04:29:31;;;;;;;38.15;10.63;;;;;;;14.67;67.98;100075.53;5054893;28;20032;-78
2022/04/25 04:32:06;;;;;;;32.10;11.05;;;;;;;14.80;67.32;100080.47;5058278;28;20092;-78
2022/04/25 04:34:31;;;;;;;34.25;12.25;;;;;;;14.93;67.05;100081.69;5066259;28;20036;-77
2022/04/25 04:36:57;;;;;;;24.98;9.85;;;;;;;15.03;66.78;100084.25;5056462;28;20037;-80
2022/04/25 04:39:23;;;;;;;28.67;10.30;;;;;;;15.14;66.58;100087.47;5054743;28;20031;-79
2022/04/25 04:41:49;;;;;;;42.95;14.90;;;;;;;15.30;66.33;100088.50;5054604;28;20028;-78
2022/04/25 04:44:14;;;;;;;29.20;12.40;;;;;;;15.35;66.15;100091.56;5054402;28;20037;-79
2022/04/25 04:46:40;;;;;;;48.35;14.90;;;;;;;15.44;66.35;100098.69;5054268;28;20029;-79
2022/04/25 04:49:06;;;;;;;48.47;15.48;;;;;;;15.50;66.37;100101.59;5054038;28;20047;-80
2022/04/25 04:51:31;;;;;;;41.15;14.65;;;;;;;15.64;65.72;100100.91;5054223;28;20021;-80
2022/04/25 04:54:00;;;;;;;33.80;13.90;;;;;;;15.64;66.20;100097.34;5053894;28;20388;-80
2022/04/25 04:56:26;;;;;;;29.88;14.63;;;;;;;15.76;65.38;100093.28;5054264;28;20500;-81
2022/04/25 04:58:53;;;;;;;32.55;15.05;;;;;;;15.75;66.25;100095.13;5053699;28;20111;-79
2022/04/25 05:01:19;;;;;;;33.08;15.50;;;;;;;15.86;65.96;100093.09;5053351;28;20402;-80
2022/04/25 05:03:45;;;;;;;26.30;15.35;;;;;;;15.83;66.42;100090.75;5053456;28;20685;-79
2022/04/25 05:06:10;;;;;;;39.35;15.88;;;;;;;15.95;66.55;100101.06;5052778;28;20029;-79
2022/04/25 05:08:36;;;;;;;32.33;13.80;;;;;;;15.75;67.60;100086.16;5053326;28;20037;-79
2022/04/25 05:11:04;;;;;;;42.35;16.65;;;;;;;15.82;67.99;100087.16;5052407;28;20044;-79
2022/04/25 05:13:31;;;;;;;33.17;14.85;;;;;;;15.88;68.35;100097.34;5053897;28;20029;-80
2022/04/25 05:15:57;;;;;;;37.60;16.23;;;;;;;15.80;68.72;100091.94;5053422;28;20072;-79
2022/04/25 05:18:22;;;;;;;28.85;14.40;;;;;;;15.91;68.99;100099.69;5053639;28;20080;-78
2022/04/25 05:20:48;;;;;;;26.33;15.07;;;;;;;15.95;69.01;100103.78;5053555;28;20053;-80
2022/04/25 05:23:13;;;;;;;23.65;14.82;;;;;;;16.05;68.98;100095.44;5053703;28;20451;-79
2022/04/25 05:25:39;;;;;;;28.52;14.50;;;;;;;16.20;68.34;100110.84;5053775;28;20264;-78
2022/04/25 05:28:05;;;;;;;24.80;14.27;;;;;;;16.33;68.17;100102.13;5053621;28;20033;-79
2022/04/25 05:30:33;;;;;;;31.00;14.23;;;;;;;16.40;67.47;100099.56;5053228;28;20376;-78
2022/04/25 05:33:02;;;;;;;48.25;15.65;;;;;;;16.52;66.87;100104.44;5052749;28;20032;-76
2022/04/25 05:35:33;;;;;;;26.00;14.30;;;;;;;16.61;66.33;100106.16;5054095;28;20573;-83
2022/04/25 05:37:59;;;;;;;24.17;13.35;;;;;;;16.70;66.61;100109.66;5053984;28;20041;-80
2022/04/25 05:40:25;;;;;;;29.27;13.80;;;;;;;16.63;65.85;100089.69;5053618;28;20052;-80
2022/04/25 05:42:52;;;;;;;34.28;14.25;;;;;;;16.76;65.10;100112.53;5053337;28;20100;-80
2022/04/25 05:45:22;;;;;;;24.30;13.45;;;;;;;16.76;65.09;100117.09;5053330;28;20091;-81
2022/04/25 05:47:49;;;;;;;33.33;13.82;;;;;;;16.63;64.64;100106.84;5053600;28;20025;-80
2022/04/25 05:53:04;;;;;;;26.10;13.95;;;;;;;16.77;64.86;100113.38;5054026;28;20114;-83
2022/04/25 05:55:29;;;;;;;26.17;11.77;;;;;;;16.78;64.31;100105.06;5053812;28;20032;-84
2022/04/25 05:57:56;;;;;;;18.05;13.00;;;;;;;16.86;64.53;100104.16;5054933;28;20043;-85
2022/04/25 06:00:24;;;;;;;23.15;11.88;;;;;;;16.95;63.82;100108.53;5058622;28;20060;-84
2022/04/25 06:02:49;;;;;;;29.13;16.70;;;;;;;16.92;63.55;100105.31;5054998;28;20032;-85
2022/04/25 06:05:15;;;;;;;25.40;13.38;;;;;;;16.76;63.62;100104.38;5054779;28;20029;-83
2022/04/25 06:07:45;;;;;;;25.73;12.40;;;;;;;16.88;63.91;100096.66;5055198;28;20513;-85
2022/04/25 06:10:15;;;;;;;26.35;12.88;;;;;;;16.92;64.15;100091.72;5055599;28;20083;-85
2022/04/25 06:12:47;;;;;;;48.53;16.05;;;;;;;17.10;63.56;100108.59;5066561;28;20029;-86
2022/04/25 06:15:13;;;;;;;21.17;12.07;;;;;;;17.08;63.47;100106.09;5075365;28;20025;-86
2022/04/25 06:17:38;;;;;;;24.75;11.93;;;;;;;17.18;62.90;100103.13;5056696;28;20169;-80
2022/04/25 06:20:06;;;;;;;28.52;12.68;;;;;;;17.35;62.21;100112.84;5060486;28;20471;-82
2022/04/25 06:22:32;;;;;;;21.42;12.23;;;;;;;17.37;61.41;100117.09;5055415;28;20453;-86
2022/04/25 06:24:58;;;;;;;29.70;13.75;;;;;;;17.43;61.21;100108.19;5054383;28;20036;-84
2022/04/25 06:27:23;;;;;;;26.33;10.73;;;;;;;17.37;60.99;100108.94;5055437;28;20335;-85
2022/04/25 06:29:49;;;;;;;27.73;12.57;;;;;;;17.30;61.65;100099.81;5055246;28;20494;-85
2022/04/25 06:32:15;;;;;;;20.02;12.13;;;;;;;17.33;61.47;100096.75;5068322;28;20097;-87
2022/04/25 06:34:41;;;;;;;37.28;13.60;;;;;;;17.41;61.42;100104.81;5060941;28;20052;-90
2022/04/25 06:37:07;;;;;;;49.88;14.50;;;;;;;17.46;60.57;100098.00;5054397;28;20028;-88
2022/04/25 06:39:33;;;;;;;27.08;11.35;;;;;;;17.56;59.19;100104.06;5051922;28;20025;-84
2022/04/25 06:41:59;;;;;;;24.23;11.13;;;;;;;17.52;59.12;100100.00;5053045;28;20025;-84
2022/04/25 06:44:27;;;;;;;31.05;13.75;;;;;;;17.61;59.13;100085.34;5053339;28;20059;-85
2022/04/25 06:46:52;;;;;;;23.30;12.63;;;;;;;17.71;58.25;100088.63;5052922;28;20029;-80
2022/04/25 06:49:21;;;;;;;32.40;11.60;;;;;;;17.78;57.53;100090.44;5052231;28;20029;-80
2022/04/25 06:51:56;;;;;;;47.42;14.38;;;;;;;17.83;57.14;100107.06;5052202;28;20033;-81
2022/04/25 06:54:25;;;;;;;26.60;12.90;;;;;;;17.88;57.37;100104.63;5051856;28;20127;-81
2022/04/25 06:56:52;;;;;;;37.95;14.20;;;;;;;17.76;58.25;100099.81;5052894;28;20498;-82
2022/04/25 06:59:19;;;;;;;29.10;12.80;;;;;;;17.79;58.22;100122.06;5051582;28;20025;-80
2022/04/25 07:01:45;;;;;;;58.90;16.88;;;;;;;17.74;57.47;100110.88;5052212;28;20029;-80
2022/04/25 07:04:13;;;;;;;34.85;12.95;;;;;;;17.91;57.70;100125.19;5052407;28;20036;-80
2022/04/25 07:06:39;;;;;;;25.92;13.02;;;;;;;18.01;57.11;100120.31;5051700;28;20463;-80
2022/04/25 07:09:06;;;;;;;31.38;11.80;;;;;;;18.02;56.96;100122.00;5051641;28;20067;-80
2022/04/25 07:11:32;;;;;;;49.03;13.13;;;;;;;17.93;56.72;100117.69;5051418;28;20036;-79
2022/04/25 07:13:58;;;;;;;35.35;12.43;;;;;;;17.82;56.86;100118.13;5051606;28;20029;-79
2022/04/25 07:16:24;;;;;;;37.80;12.80;;;;;;;17.68;57.32;100122.47;5050191;28;20037;-80
2022/04/25 07:18:50;;;;;;;23.45;11.35;;;;;;;17.61;56.62;100123.41;5051174;28;20132;-81
2022/04/25 07:29:29;;;;;;;60.03;14.73;;;;;;;17.82;56.67;100099.09;5052217;28;20036;-80
2022/04/25 07:31:54;;;;;;;24.52;10.15;;;;;;;17.73;56.22;100100.19;5055589;28;20037;-79
2022/04/25 07:34:21;;;;;;;23.73;10.00;;;;;;;17.75;56.40;100098.97;5055433;28;20039;-79
2022/04/25 07:36:51;;;;;;;40.03;10.57;;;;;;;17.72;55.66;100112.94;5053867;28;20425;-79
2022/04/25 07:39:18;;;;;;;22.27;9.98;;;;;;;17.80;55.29;100104.69;5055181;28;20118;-79
2022/04/25 07:41:44;;;;;;;16.95;8.55;;;;;;;17.79;54.14;100102.19;5054892;28;20029;-79
2022/04/25 07:44:10;;;;;;;22.00;8.85;;;;;;;17.84;54.28;100116.91;5054798;28;20029;-79
2022/04/25 07:46:36;;;;;;;19.38;7.95;;;;;;;17.90;54.11;100099.84;5054965;28;20039;-78
2022/04/25 07:49:01;;;;;;;22.77;7.07;;;;;;;17.95;52.82;100099.28;5055057;28;20475;-79
2022/04/25 07:51:27;;;;;;;18.77;7.80;;;;;;;17.81;52.70;100089.22;5055972;28;20028;-79
2022/04/25 07:53:52;;;;;;;28.27;8.05;;;;;;;17.90;53.60;100085.41;5061096;28;20448;-79
2022/04/25 07:56:18;;;;;;;16.88;7.05;;;;;;;17.98;53.71;100085.31;5055127;28;20063;-78
2022/04/25 07:58:45;;;;;;;24.02;8.75;;;;;;;18.09;53.46;100075.84;5054873;28;20025;-79
2022/04/25 08:01:10;;;;;;;13.70;7.03;;;;;;;18.10;52.55;100078.41;5054906;28;20050;-78
2022/04/25 08:03:36;;;;;;;17.27;7.15;;;;;;;18.11;53.11;100074.63;5054971;28;20029;-80
2022/04/25 08:06:01;;;;;;;19.63;6.70;;;;;;;18.21;52.93;100075.22;5055403;28;20108;-79
2022/04/25 08:08:27;;;;;;;15.98;6.47;;;;;;;18.34;52.83;100077.28;5059792;28;20052;-79
2022/04/25 08:10:52;;;;;;;20.02;8.05;;;;;;;18.39;52.65;100078.41;5060640;28;20523;-79
2022/04/25 08:18:46;;;;;;;16.10;6.97;;;;;;;18.47;53.24;100075.56;5054540;28;20061;-80
2022/04/25 08:21:11;;;;;;;11.95;5.88;;;;;;;18.41;53.74;100072.75;5054072;28;20049;-78
2022/04/25 08:23:37;;;;;;;12.70;7.47;;;;;;;18.45;54.32;100074.91;5054666;28;20056;-79
2022/04/25 08:26:02;;;;;;;17.63;6.63;;;;;;;18.30;54.55;100071.34;5054623;28;20025;-79
2022/04/25 08:28:28;;;;;;;17.05;7.95;;;;;;;18.39;55.08;100070.22;5054037;28;20021;-78
2022/04/25 08:30:54;;;;;;;19.15;8.55;;;;;;;18.40;55.03;100066.47;5053859;28;20025;-81
2022/04/25 08:33:21;;;;;;;17.27;8.13;;;;;;;18.55;55.12;100068.38;5054256;28;20029;-80
2022/04/25 08:35:47;;;;;;;10.90;5.90;;;;;;;18.44;54.90;100072.38;5053680;28;20057;-78
2022/04/25 08:38:12;;;;;;;18.50;6.55;;;;;;;18.53;55.05;100073.16;5054071;28;20098;-79
2022/04/25 08:40:40;;;;;;;11.55;6.95;;;;;;;18.53;55.28;100075.91;5053661;28;20116;-79
2022/04/25 08:43:06;;;;;;;20.88;6.95;;;;;;;18.54;55.23;100067.53;5053527;28;20033;-79
2022/04/25 08:45:33;;;;;;;14.88;7.00;;;;;;;18.60;54.95;100065.91;5053882;28;20029;-79
2022/04/25 08:48:00;;;;;;;14.90;6.75;;;;;;;18.62;55.01;100075.59;5053954;28;20431;-80
2022/04/25 08:50:30;;;;;;;24.90;6.85;;;;;;;18.42;55.38;100069.84;5053770;28;20032;-79
2022/04/25 08:52:56;;;;;;;26.02;7.13;;;;;;;18.38;55.28;100073.13;5053456;28;20490;-79
2022/04/25 08:55:22;;;;;;;16.55;7.60;;;;;;;18.52;55.40;100071.47;5053833;28;20025;-78
2022/04/25 08:57:50;;;;;;;24.52;7.13;;;;;;;18.48;55.07;100069.09;5053472;28;20082;-78
2022/04/25 09:00:16;;;;;;;20.75;8.05;;;;;;;18.59;55.00;100086.03;5053539;28;20059;-78
2022/04/25 09:02:44;;;;;;;11.07;6.63;;;;;;;18.58;54.98;100096.06;5053524;28;20040;-80
2022/04/25 09:05:11;;;;;;;14.60;6.55;;;;;;;18.66;54.42;100095.97;5053068;28;20040;-79
2022/04/25 09:07:37;;;;;;;18.95;8.25;;;;;;;18.68;54.36;100106.69;5053153;28;20025;-79
2022/04/25 09:10:10;;;;;;;15.23;6.43;;;;;;;18.59;54.49;100083.31;5053253;28;20446;-79
2022/04/25 09:12:41;;;;;;;11.63;6.20;;;;;;;18.56;55.24;100083.69;5053424;28;20039;-79
2022/04/25 09:15:08;;;;;;;16.33;6.57;;;;;;;18.72;55.25;100087.03;5049694;28;20047;-79
2022/04/25 09:17:37;;;;;;;14.90;6.32;;;;;;;18.57;53.78;100085.34;5053307;28;20025;-80
2022/04/25 09:20:03;;;;;;;17.52;6.35;;;;;;;18.60;54.59;100085.81;5053426;28;20036;-78
2022/04/25 09:22:33;;;;;;;13.93;5.35;;;;;;;18.74;54.24;100089.59;5053411;28;20116;-78
2022/04/25 09:25:12;;;;;;;29.55;6.82;;;;;;;18.60;54.12;100082.25;5054363;28;20113;-80
2022/04/25 09:27:39;;;;;;;19.15;7.28;;;;;;;18.71;54.51;100077.19;5054786;28;20063;-80
2022/04/25 09:30:22;;;;;;;16.75;6.75;;;;;;;18.67;53.59;100078.59;5067769;28;20025;-79
2022/04/25 09:32:50;;;;;;;18.67;6.07;;;;;;;18.70;54.59;100077.34;5054900;28;20028;-78
2022/04/25 09:35:24;;;;;;;19.77;7.18;;;;;;;18.85;54.68;100072.72;5053143;28;20263;-79
2022/04/25 09:37:51;;;;;;;22.75;6.30;;;;;;;18.95;54.81;100065.09;5052158;28;20067;-81
2022/04/25 09:40:22;;;;;;;13.73;5.80;;;;;;;19.15;53.92;100049.78;5053463;28;20127;-79
2022/04/25 09:43:03;;;;;;;15.77;6.88;;;;;;;19.17;53.60;100041.44;5052934;28;20037;-78
2022/04/25 09:45:29;;;;;;;18.98;6.78;;;;;;;19.24;53.88;100043.16;5052822;28;20025;-79
2022/04/25 09:47:55;;;;;;;13.80;5.53;;;;;;;19.45;52.83;100040.47;5052589;28;20036;-78
2022/04/25 09:50:21;;;;;;;11.88;4.80;;;;;;;19.42;52.53;100035.41;5052404;28;20107;-78
2022/04/25 09:52:58;;;;;;;11.85;5.35;;;;;;;19.38;52.77;100049.63;5052018;28;20112;-79
2022/04/25 09:55:27;;;;;;;8.45;5.28;;;;;;;19.47;53.37;100038.41;5052703;28;20033;-78
2022/04/25 09:57:53;;;;;;;17.90;6.15;;;;;;;19.70;52.71;100042.75;5052753;28;20025;-78
2022/04/25 10:00:33;;;;;;;10.40;4.65;;;;;;;19.79;52.24;100036.13;5052798;28;20433;-77
2022/04/25 10:02:59;;;;;;;30.35;7.32;;;;;;;19.72;53.05;100035.25;5052676;28;20025;-79
2022/04/25 10:06:01;;;;;;;25.48;6.30;;;;;;;19.81;52.54;100045.81;5052152;28;20400;-80
2022/04/25 10:08:27;;;;;;;13.23;6.32;;;;;;;19.73;52.74;100020.53;5052621;28;20461;-79
2022/04/25 10:10:53;;;;;;;16.90;5.85;;;;;;;19.74;52.23;100028.53;5051423;28;20033;-80
2022/04/25 10:13:20;;;;;;;12.88;5.55;;;;;;;19.82;52.60;100041.19;5052410;28;20032;-77
2022/04/25 10:15:46;;;;;;;8.27;5.35;;;;;;;19.88;52.48;100040.38;5052421;28;20029;-78
2022/04/25 10:18:13;;;;;;;24.27;5.93;;;;;;;20.00;52.42;100033.31;5052773;28;20036;-78
2022/04/25 10:20:41;;;;;;;15.38;7.35;;;;;;;20.24;52.28;100041.06;5051310;28;20039;-79
2022/04/25 10:23:09;;;;;;;13.27;5.53;;;;;;;20.23;52.07;100035.78;5052728;28;20135;-78
2022/04/25 10:25:36;;;;;;;17.55;5.47;;;;;;;20.18;51.79;100030.97;5052553;28;20075;-78
2022/04/25 10:28:07;;;;;;;17.48;5.15;;;;;;;20.38;51.92;100036.53;5052022;28;20021;-78
2022/04/25 10:30:34;;;;;;;15.50;6.28;;;;;;;20.44;51.47;100044.78;5051985;28;20021;-78
2022/04/25 10:33:21;;;;;;;17.23;6.30;;;;;;;20.47;51.80;100041.63;5052007;28;20144;-78
2022/04/25 10:35:50;;;;;;;16.27;5.57;;;;;;;20.42;52.24;100043.28;5052149;28;20435;-82
2022/04/25 10:38:47;;;;;;;6.57;4.65;;;;;;;20.47;52.13;100035.31;5052931;28;20040;-80
2022/04/25 10:44:34;;;;;;;23.25;7.75;;;;;;;20.41;52.36;100042.44;5052249;28;20035;-78
2022/04/25 10:47:05;;;;;;;11.57;6.20;;;;;;;20.41;52.83;100041.59;5048381;28;20767;-79
2022/04/25 10:49:42;;;;;;;24.08;7.47;;;;;;;20.43;53.12;100036.75;5051781;28;20017;-79
2022/04/25 10:55:42;;;;;;;20.13;5.40;;;;;;;20.20;54.27;100033.47;5052216;28;20111;-79
2022/04/25 10:58:13;;;;;;;19.25;6.13;;;;;;;20.14;53.98;100029.66;5051977;28;20091;-79
2022/04/25 11:00:41;;;;;;;11.35;5.30;;;;;;;20.37;53.91;100023.91;5051712;28;20104;-79
2022/04/25 11:03:17;;;;;;;19.85;5.88;;;;;;;20.22;54.25;100032.22;5052155;28;20029;-82
2022/04/25 11:05:43;;;;;;;20.48;6.22;;;;;;;20.43;53.91;100034.03;5051844;28;20029;-79
2022/04/25 11:08:24;;;;;;;10.15;5.22;;;;;;;20.42;53.87;100033.22;5059743;28;20045;-80
2022/04/25 11:10:50;;;;;;;16.67;5.88;;;;;;;20.40;54.19;100045.38;5053831;28;20475;-80
2022/04/25 11:13:19;;;;;;;17.48;5.30;;;;;;;20.32;54.45;100035.47;5051497;28;20455;-78
2022/04/25 11:15:46;;;;;;;8.73;5.78;;;;;;;20.36;54.31;100039.50;5051125;28;20082;-81
2022/04/25 11:18:35;;;;;;;20.63;6.30;;;;;;;20.24;54.71;100024.69;5051351;28;20372;-78
2022/04/25 11:21:16;;;;;;;19.98;6.05;;;;;;;20.14;54.69;100021.47;5051659;28;20025;-81
2022/04/25 11:23:45;;;;;;;8.77;5.07;;;;;;;20.20;54.75;100019.81;5052056;28;20019;-81
2022/04/25 11:26:22;;;;;;;11.55;4.97;;;;;;;20.23;54.42;100017.53;5050722;28;20471;-80
2022/04/25 11:28:54;;;;;;;20.52;5.88;;;;;;;20.42;53.85;100021.44;5051611;28;20479;-81
2022/04/25 11:31:21;;;;;;;11.15;4.95;;;;;;;20.36;52.91;100012.19;5050549;28;20734;-79
2022/04/25 11:33:48;;;;;;;25.92;5.53;;;;;;;20.38;53.84;100015.53;5051774;28;20055;-78
2022/04/25 11:36:14;;;;;;;15.98;5.32;;;;;;;20.50;52.90;100019.38;5051286;28;20124;-81
2022/04/25 11:41:28;;;;;;;8.27;4.35;;;;;;;20.54;52.55;100020.66;5051622;28;20036;-80
2022/04/25 11:43:53;;;;;;;20.05;5.47;;;;;;;20.73;51.96;100012.75;5051452;28;20462;-80
2022/04/25 11:46:19;;;;;;;19.08;5.35;;;;;;;20.61;51.63;100012.47;5051921;28;20102;-81
2022/04/25 11:48:49;;;;;;;11.32;4.88;;;;;;;20.76;51.59;100004.13;5051610;28;20107;-79